createdAt,value
2018-06-10T00:00:03.092Z,23.90
2018-06-10T00:01:03.090Z,25.70
2018-06-10T00:02:03.100Z,25.30
2018-06-10T00:03:03.115Z,28.20
2018-06-10T00:04:03.191Z,25.40
2018-06-10T00:05:03.185Z,26.60
2018-06-10T00:06:03.196Z,25.30
2018-06-10T00:07:03.202Z,26.30
2018-06-10T00:08:03.205Z,25.70
2018-06-10T00:09:03.227Z,24.20
2018-06-10T00:10:03.253Z,25.40
2018-06-10T00:11:03.260Z,24.60
2018-06-10T00:12:03.272Z,24.00
2018-06-10T00:13:03.275Z,22.00
2018-06-10T00:14:03.308Z,22.90
2018-06-10T00:15:03.298Z,22.60
2018-06-10T00:16:03.350Z,23.10
2018-06-10T00:17:03.368Z,23.40
2018-06-10T00:18:03.382Z,21.90
2018-06-10T00:19:03.391Z,22.70
2018-06-10T00:20:03.402Z,21.80
2018-06-10T00:21:03.428Z,23.30
2018-06-10T00:22:03.442Z,25.40
2018-06-10T00:23:03.444Z,22.10
2018-06-10T00:24:03.468Z,25.00
2018-06-10T00:25:03.494Z,23.00
2018-06-10T00:26:03.519Z,23.10
2018-06-10T00:27:03.516Z,24.00
2018-06-10T00:28:03.528Z,24.40
2018-06-10T00:29:03.532Z,24.80
2018-06-10T00:30:03.562Z,22.90
2018-06-10T00:31:03.551Z,24.10
2018-06-10T00:32:03.587Z,24.20
2018-06-10T00:33:03.622Z,23.80
2018-06-10T00:34:03.618Z,24.70
2018-06-10T00:35:03.625Z,23.20
2018-06-10T00:36:03.650Z,21.90
2018-06-10T00:37:03.718Z,22.70
2018-06-10T00:38:03.678Z,22.30
2018-06-10T00:39:03.693Z,23.50
2018-06-10T00:40:03.716Z,22.90
2018-06-10T00:41:03.717Z,26.70
2018-06-10T00:42:03.765Z,25.70
2018-06-10T00:43:03.749Z,24.60
2018-06-10T00:44:03.786Z,25.30
2018-06-10T00:45:03.776Z,25.90
2018-06-10T00:46:03.818Z,28.70
2018-06-10T00:47:03.836Z,25.60
2018-06-10T00:48:03.869Z,24.30
2018-06-10T00:49:03.839Z,23.80
2018-06-10T00:50:04.852Z,23.50
2018-06-10T00:51:03.861Z,23.40
2018-06-10T00:52:04.873Z,22.70
2018-06-10T00:53:03.903Z,24.50
2018-06-10T00:54:04.918Z,25.90
2018-06-10T00:55:03.951Z,23.40
2018-06-10T00:56:03.974Z,24.30
2018-06-10T00:57:03.976Z,23.90
2018-06-10T00:58:03.964Z,22.70
2018-06-10T00:59:03.989Z,24.30
2018-06-10T01:00:04.004Z,27.10
2018-06-10T01:01:04.039Z,25.30
2018-06-10T01:02:04.043Z,25.30
2018-06-10T01:03:04.088Z,26.60
2018-06-10T01:04:04.071Z,26.60
2018-06-10T01:05:04.069Z,32.30
2018-06-10T01:06:09.733Z,35.70
2018-06-10T01:07:04.152Z,28.30
2018-06-10T01:08:09.737Z,36.00
2018-06-10T01:09:04.174Z,49.70
2018-06-10T01:10:04.177Z,44.60
2018-06-10T01:11:04.178Z,46.90
2018-06-10T01:12:05.208Z,48.60
2018-06-10T01:13:04.227Z,52.10
2018-06-10T01:14:04.232Z,52.40
2018-06-10T01:15:04.289Z,48.50
2018-06-10T01:16:04.262Z,40.20
2018-06-10T01:17:04.267Z,39.20
2018-06-10T01:18:04.300Z,32.80
2018-06-10T01:19:04.298Z,38.30
2018-06-10T01:20:04.334Z,37.40
2018-06-10T01:21:04.492Z,39.20
2018-06-10T01:22:04.334Z,39.40
2018-06-10T01:23:04.354Z,40.60
2018-06-10T01:24:04.359Z,43.00
2018-06-10T01:25:04.419Z,43.00
2018-06-10T01:26:04.400Z,44.10
2018-06-10T01:27:04.423Z,47.40
2018-06-10T01:28:04.443Z,42.40
2018-06-10T01:29:04.454Z,42.40
2018-06-10T01:30:04.483Z,45.60
2018-06-10T01:31:05.476Z,47.10
2018-06-10T01:32:04.492Z,49.30
2018-06-10T01:33:04.551Z,46.20
2018-06-10T01:34:04.504Z,44.80
2018-06-10T01:35:05.541Z,45.10
2018-06-10T01:36:04.785Z,54.70
2018-06-10T01:37:04.591Z,57.40
2018-06-10T01:38:04.581Z,58.90
2018-06-10T01:39:04.614Z,61.30
2018-06-10T01:40:04.618Z,56.70
2018-06-10T01:41:04.647Z,44.90
2018-06-10T01:42:04.650Z,46.80
2018-06-10T01:43:04.672Z,47.80
2018-06-10T01:44:05.685Z,54.10
2018-06-10T01:45:04.695Z,53.60
2018-06-10T01:46:04.747Z,56.00
2018-06-10T01:47:04.745Z,54.00
2018-06-10T01:48:04.740Z,57.30
2018-06-10T01:49:04.755Z,54.20
2018-06-10T01:50:04.767Z,60.10
2018-06-10T01:51:04.844Z,55.00
2018-06-10T01:52:04.816Z,60.00
2018-06-10T01:53:04.831Z,57.90
2018-06-10T01:54:04.832Z,65.40
2018-06-10T01:55:04.839Z,67.10
2018-06-10T01:56:05.885Z,68.60
2018-06-10T01:57:04.870Z,74.80
2018-06-10T01:58:04.891Z,75.70
2018-06-10T01:59:04.901Z,68.90
2018-06-10T02:00:04.940Z,64.40
2018-06-10T02:01:04.925Z,80.20
2018-06-10T02:02:04.946Z,76.40
2018-06-10T02:03:04.970Z,82.20
2018-06-10T02:04:05.011Z,79.50
2018-06-10T02:05:05.032Z,79.00
2018-06-10T02:06:05.029Z,82.30
2018-06-10T02:07:05.054Z,84.70
2018-06-10T02:08:05.058Z,85.70
2018-06-10T02:09:05.049Z,83.60
2018-06-10T02:10:05.080Z,86.00
2018-06-10T02:11:05.104Z,102.40
2018-06-10T02:12:05.196Z,99.20
2018-06-10T02:13:05.237Z,97.90
2018-06-10T02:14:05.133Z,93.90
2018-06-10T02:15:05.156Z,99.80
2018-06-10T02:16:05.163Z,96.90
2018-06-10T02:17:05.214Z,89.90
2018-06-10T02:18:05.216Z,97.70
2018-06-10T02:19:05.301Z,99.40
2018-06-10T02:20:06.320Z,88.70
2018-06-10T02:21:05.291Z,89.60
2018-06-10T02:22:05.261Z,95.00
2018-06-10T02:23:05.326Z,92.40
2018-06-10T02:24:07.352Z,100.80
2018-06-10T02:25:05.306Z,80.30
2018-06-10T02:26:05.322Z,71.30
2018-06-10T02:27:05.335Z,89.30
2018-06-10T02:28:10.267Z,76.90
2018-06-10T02:29:05.367Z,84.30
2018-06-10T02:30:12.306Z,81.30
2018-06-10T02:31:05.424Z,81.10
2018-06-10T02:32:05.431Z,88.80
2018-06-10T02:33:05.435Z,83.90
2018-06-10T02:34:05.439Z,76.80
2018-06-10T02:35:05.457Z,76.20
2018-06-10T02:36:07.545Z,90.50
2018-06-10T02:37:05.506Z,96.40
2018-06-10T02:38:10.280Z,118.40
2018-06-10T02:39:05.522Z,97.10
2018-06-10T02:40:07.581Z,100.10
2018-06-10T02:41:05.576Z,95.10
2018-06-10T02:42:06.628Z,111.10
2018-06-10T02:43:05.627Z,105.80
2018-06-10T02:44:06.599Z,108.50
2018-06-10T02:45:05.605Z,114.80
2018-06-10T02:46:11.290Z,122.80
2018-06-10T02:47:06.308Z,108.60
2018-06-10T02:48:05.677Z,123.20
2018-06-10T02:49:05.792Z,126.50
2018-06-10T02:50:17.425Z,121.60
2018-06-10T02:51:05.836Z,130.80
2018-06-10T02:52:11.347Z,140.90
2018-06-10T02:53:05.754Z,139.20
2018-06-10T02:54:07.764Z,138.00
2018-06-10T02:55:05.779Z,145.30
2018-06-10T02:56:06.879Z,138.70
2018-06-10T02:57:05.807Z,138.40
2018-06-10T02:58:26.831Z,142.50
2018-06-10T02:59:05.850Z,140.70
2018-06-10T06:10:39.678Z,119.20
2018-06-10T06:11:27.911Z,123.10
2018-06-10T06:12:28.911Z,112.50
2018-06-10T06:13:28.029Z,112.70
2018-06-10T06:14:28.963Z,118.90
2018-06-10T06:15:27.968Z,89.40
2018-06-10T06:16:28.998Z,94.90
2018-06-10T06:17:27.955Z,105.60
2018-06-10T06:18:30.028Z,131.50
2018-06-10T06:19:28.054Z,108.30
2018-06-10T06:20:28.049Z,105.20
2018-06-10T06:21:28.089Z,84.80
2018-06-10T06:22:29.088Z,87.40
2018-06-10T06:23:28.095Z,91.10
2018-06-10T06:24:28.089Z,97.90
2018-06-10T06:25:28.117Z,81.70
2018-06-10T06:26:28.139Z,76.70
2018-06-10T06:27:28.217Z,92.20
2018-06-10T06:28:28.187Z,88.70
2018-06-10T06:29:28.371Z,95.60
2018-06-10T06:30:34.850Z,101.50
2018-06-10T06:31:28.208Z,99.60
2018-06-10T06:32:29.273Z,77.20
2018-06-10T06:33:28.209Z,80.70
2018-06-10T06:34:30.315Z,101.50
2018-06-10T06:35:28.266Z,98.50
2018-06-10T06:36:28.253Z,105.60
2018-06-10T06:37:28.249Z,98.70
2018-06-10T06:38:32.885Z,101.00
2018-06-10T06:39:28.297Z,100.50
2018-06-10T06:40:30.449Z,95.80
2018-06-10T06:41:28.312Z,96.80
2018-06-10T06:42:29.406Z,97.60
2018-06-10T06:43:28.370Z,99.40
2018-06-10T06:44:30.445Z,91.30
2018-06-10T06:45:28.383Z,76.30
2018-06-10T06:46:28.423Z,77.60
2018-06-10T06:47:28.448Z,76.20
2018-06-10T06:48:28.528Z,66.00
2018-06-10T06:49:28.431Z,77.50
2018-06-10T06:50:29.604Z,72.00
2018-06-10T06:51:28.473Z,96.10
2018-06-10T06:52:28.601Z,79.80
2018-06-10T06:53:28.488Z,79.90
2018-06-10T06:54:29.642Z,80.70
2018-06-10T06:55:28.521Z,79.80
2018-06-10T06:56:28.592Z,82.50
2018-06-10T06:57:28.586Z,67.30
2018-06-10T06:58:28.554Z,71.30
2018-06-10T06:59:28.601Z,87.00
2018-06-10T07:00:28.607Z,79.90
2018-06-10T07:01:28.602Z,73.30
2018-06-10T07:02:28.625Z,72.50
2018-06-10T07:03:28.664Z,80.80
2018-06-10T07:04:28.648Z,77.00
2018-06-10T07:05:28.665Z,77.20
2018-06-10T07:06:28.676Z,73.70
2018-06-10T07:07:28.696Z,73.80
2018-06-10T07:08:28.762Z,70.30
2018-06-10T07:09:28.714Z,63.50
2018-06-10T07:10:28.729Z,55.10
2018-06-10T07:11:28.784Z,59.80
2018-06-10T07:12:28.767Z,59.70
2018-06-10T07:13:28.774Z,58.70
2018-06-10T07:14:28.777Z,51.20
2018-06-10T07:15:28.829Z,48.60
2018-06-10T07:16:28.836Z,46.50
2018-06-10T07:17:28.864Z,47.30
2018-06-10T07:18:28.846Z,51.00
2018-06-10T07:19:28.846Z,41.80
2018-06-10T07:20:28.859Z,42.30
2018-06-10T07:21:28.953Z,44.70
2018-06-10T07:22:28.885Z,41.70
2018-06-10T07:23:28.932Z,37.60
2018-06-10T07:24:30.016Z,40.40
2018-06-10T07:25:28.929Z,41.80
2018-06-10T07:26:28.999Z,44.20
2018-06-10T07:27:28.994Z,46.40
2018-06-10T07:28:28.980Z,42.40
2018-06-10T07:29:28.984Z,39.10
2018-06-10T07:30:29.038Z,35.40
2018-06-10T07:31:29.027Z,39.50
2018-06-10T07:32:29.057Z,39.80
2018-06-10T07:33:29.045Z,37.40
2018-06-10T07:34:29.157Z,36.00
2018-06-10T07:35:29.070Z,34.90
2018-06-10T07:36:29.165Z,32.80
2018-06-10T07:37:29.101Z,30.30
2018-06-10T07:38:29.216Z,33.50
2018-06-10T07:39:29.170Z,30.20
2018-06-10T07:40:29.245Z,32.50
2018-06-10T07:41:29.170Z,31.90
2018-06-10T07:42:29.217Z,34.50
2018-06-10T07:43:29.199Z,34.50
2018-06-10T07:44:29.202Z,29.50
2018-06-10T07:45:29.230Z,29.30
2018-06-10T07:46:29.344Z,29.30
2018-06-10T07:47:29.231Z,26.20
2018-06-10T07:48:29.330Z,26.70
2018-06-10T07:49:30.298Z,26.20
2018-06-10T07:50:29.263Z,27.80
2018-06-10T07:51:29.363Z,27.50
2018-06-10T07:52:29.316Z,27.40
2018-06-10T07:53:29.371Z,27.80
2018-06-10T07:54:29.340Z,27.40
2018-06-10T07:55:29.336Z,26.80
2018-06-10T07:56:29.419Z,29.10
2018-06-10T07:57:29.434Z,25.80
2018-06-10T07:58:29.508Z,28.10
2018-06-10T07:59:29.495Z,28.30
2018-06-10T08:00:29.482Z,26.60
2018-06-10T08:01:29.624Z,25.20
2018-06-10T08:02:29.445Z,24.20
2018-06-10T08:03:29.541Z,23.70
2018-06-10T08:04:29.478Z,23.50
2018-06-10T08:05:29.601Z,23.00
2018-06-10T08:06:29.527Z,26.70
2018-06-10T08:07:29.586Z,21.60
2018-06-10T08:08:29.532Z,22.20
2018-06-10T08:09:31.722Z,22.00
2018-06-10T08:10:29.556Z,21.80
2018-06-10T08:11:30.673Z,22.40
2018-06-10T08:12:29.598Z,24.20
2018-06-10T08:13:34.479Z,22.20
2018-06-10T08:14:29.626Z,21.20
2018-06-10T08:15:30.653Z,21.80
2018-06-10T08:16:29.676Z,21.50
2018-06-10T08:17:31.694Z,21.70
2018-06-10T08:18:29.677Z,22.60
2018-06-10T08:19:29.784Z,21.10
2018-06-10T08:20:29.708Z,24.30
2018-06-10T08:21:29.784Z,21.20
2018-06-10T08:22:29.736Z,21.70
2018-06-10T08:23:29.816Z,24.30
2018-06-10T08:24:29.753Z,22.20
2018-06-10T08:25:30.824Z,22.70
2018-06-10T08:26:29.778Z,20.50
2018-06-10T08:27:29.865Z,21.80
2018-06-10T08:28:29.803Z,22.40
2018-06-10T08:29:29.993Z,22.30
2018-06-10T08:30:29.859Z,20.00
2018-06-10T08:31:29.956Z,21.70
2018-06-10T08:32:29.855Z,20.40
2018-06-10T08:33:29.900Z,20.40
2018-06-10T08:34:29.971Z,20.20
2018-06-10T08:35:29.915Z,20.20
2018-06-10T08:36:29.918Z,19.30
2018-06-10T08:37:29.995Z,18.20
2018-06-10T08:38:29.949Z,19.90
2018-06-10T08:39:30.022Z,19.70
2018-06-10T08:40:30.008Z,18.60
2018-06-10T08:41:30.011Z,17.80
2018-06-10T08:42:31.051Z,17.00
2018-06-10T08:43:30.059Z,15.90
2018-06-10T08:44:30.039Z,17.80
2018-06-10T08:45:30.051Z,17.80
2018-06-10T08:46:30.051Z,17.80
2018-06-10T08:47:30.221Z,15.10
2018-06-10T08:48:30.091Z,15.20
2018-06-10T08:49:30.194Z,16.40
2018-06-10T08:50:30.185Z,14.90
2018-06-10T08:51:30.224Z,16.30
2018-06-10T08:52:30.169Z,16.30
2018-06-10T08:53:30.174Z,17.50
2018-06-10T08:54:30.183Z,15.40
2018-06-10T08:55:30.191Z,16.30
2018-06-10T08:56:32.277Z,15.40
2018-06-10T08:57:30.219Z,15.40
2018-06-10T08:58:42.978Z,14.60
2018-06-10T08:59:30.290Z,15.20
2018-06-10T09:00:34.988Z,15.90
2018-06-10T09:01:30.353Z,16.10
2018-06-10T09:02:45.980Z,13.90
2018-06-10T09:03:30.327Z,14.20
2018-06-10T09:04:46.017Z,13.60
2018-06-10T09:05:30.361Z,13.60
2018-06-10T09:06:35.011Z,16.10
2018-06-10T09:07:30.384Z,14.90
2018-06-10T09:08:43.140Z,15.50
2018-06-10T09:09:30.431Z,14.80
2018-06-10T09:10:34.962Z,14.60
2018-06-10T09:11:30.508Z,15.10
2018-06-10T09:12:32.556Z,18.50
2018-06-10T09:13:30.475Z,16.90
2018-06-10T09:14:45.696Z,16.40
2018-06-10T09:15:30.504Z,17.00
2018-06-10T09:16:51.634Z,17.10
2018-06-10T09:17:30.801Z,18.30
2018-06-10T09:18:42.504Z,18.40
2018-06-10T09:19:30.671Z,18.20
2018-06-10T09:20:35.569Z,16.70
2018-06-10T09:21:30.575Z,17.80
2018-06-10T09:22:32.731Z,17.10
2018-06-10T09:23:30.640Z,16.10
2018-06-10T09:24:42.527Z,16.90
2018-06-10T09:25:30.690Z,16.90
2018-06-10T09:26:31.733Z,17.70
2018-06-10T09:27:30.674Z,17.30
2018-06-10T09:28:54.534Z,19.10
2018-06-10T09:29:30.720Z,17.80
2018-06-10T09:30:30.748Z,17.60
2018-06-10T09:31:30.849Z,15.30
2018-06-10T09:32:30.754Z,14.70
2018-06-10T09:33:32.881Z,15.60
2018-06-10T09:34:30.779Z,14.60
2018-06-10T09:35:32.981Z,15.30
2018-06-10T09:36:30.812Z,15.20
2018-06-10T09:37:52.923Z,14.80
2018-06-10T09:38:30.875Z,15.00
2018-06-10T09:40:03.575Z,16.10
2018-06-10T09:40:30.881Z,17.50
2018-06-10T09:41:43.471Z,17.30
2018-06-10T09:42:30.985Z,18.30
2018-06-10T09:43:32.198Z,16.70
2018-06-10T09:44:30.927Z,18.00
2018-06-10T09:46:09.003Z,17.00
2018-06-10T09:46:31.040Z,17.60
2018-06-10T09:47:30.963Z,16.60
2018-06-10T09:48:31.076Z,16.50
2018-06-10T09:49:30.974Z,16.20
2018-06-10T09:51:09.063Z,15.70
2018-06-10T09:51:31.066Z,17.00
2018-06-10T11:18:40.436Z,16.60
2018-06-10T11:19:38.781Z,20.80
2018-06-10T11:20:39.814Z,26.00
2018-06-10T11:21:38.805Z,23.00
2018-06-10T11:22:38.936Z,23.30
2018-06-10T11:23:40.441Z,23.10
2018-06-10T11:24:38.885Z,27.00
2018-06-10T11:25:41.543Z,24.50
2018-06-10T11:26:40.421Z,24.10
2018-06-10T11:27:40.643Z,23.10
2018-06-10T11:28:38.901Z,26.90
2018-06-10T11:29:42.147Z,24.10
2018-06-10T11:30:40.080Z,24.30
2018-06-10T11:31:38.942Z,23.50
2018-06-10T11:32:38.976Z,24.90
2018-06-10T11:33:41.900Z,27.70
2018-06-10T11:34:38.998Z,24.20
2018-06-10T11:35:40.936Z,23.30
2018-06-10T11:36:41.158Z,21.70
2018-06-10T11:37:39.032Z,22.50
2018-06-10T11:38:39.164Z,21.90
2018-06-10T11:39:39.089Z,24.10
2018-06-10T11:40:50.029Z,23.00
2018-06-10T11:41:39.114Z,21.60
2018-06-10T11:42:39.310Z,22.40
2018-06-10T11:43:39.161Z,21.40
2018-06-10T11:44:41.217Z,21.60
2018-06-10T11:45:39.166Z,21.70
2018-06-10T11:46:39.183Z,23.20
2018-06-10T11:47:39.185Z,21.70
2018-06-10T11:48:40.330Z,22.90
2018-06-10T11:49:39.204Z,22.30
2018-06-10T11:50:44.036Z,21.80
2018-06-10T11:51:39.248Z,22.60
2018-06-10T11:52:39.323Z,27.80
2018-06-10T11:53:40.460Z,24.90
2018-06-10T11:54:39.295Z,25.70
2018-06-10T11:55:39.322Z,24.60
2018-06-10T11:56:39.755Z,24.10
2018-06-10T11:57:39.368Z,24.60
2018-06-10T11:58:39.497Z,25.80
2018-06-10T11:59:39.412Z,26.90
2018-06-10T12:00:39.463Z,30.10
2018-06-10T12:01:40.496Z,27.10
2018-06-10T12:02:39.423Z,26.50
2018-06-10T12:03:39.719Z,26.30
2018-06-10T12:04:39.453Z,28.90
2018-06-10T12:05:39.686Z,29.60
2018-06-10T12:06:39.496Z,31.10
2018-06-10T12:07:39.507Z,29.10
2018-06-10T12:08:39.598Z,27.20
2018-06-10T12:09:39.542Z,26.90
2018-06-10T12:10:39.589Z,28.80
2018-06-10T12:11:40.666Z,27.40
2018-06-10T12:12:39.597Z,27.20
2018-06-10T12:13:39.683Z,28.50
2018-06-10T12:14:39.584Z,24.40
2018-06-10T12:15:39.597Z,26.20
2018-06-10T12:16:39.683Z,25.80
2018-06-10T12:17:39.630Z,26.50
2018-06-10T12:18:39.699Z,27.30
2018-06-10T12:19:39.700Z,29.50
2018-06-10T12:20:39.706Z,27.60
2018-06-10T12:21:39.763Z,29.00
2018-06-10T12:22:39.755Z,29.80
2018-06-10T12:23:40.827Z,31.80
2018-06-10T12:24:39.768Z,33.30
2018-06-10T12:25:39.811Z,30.60
2018-06-10T12:26:39.847Z,32.40
2018-06-10T12:27:39.928Z,31.40
2018-06-10T12:28:39.830Z,32.80
2018-06-10T12:29:39.849Z,31.30
2018-06-10T12:30:39.851Z,31.50
2018-06-10T12:31:39.967Z,30.90
2018-06-10T12:32:39.892Z,32.10
2018-06-10T12:33:39.961Z,29.80
2018-06-10T12:34:39.917Z,28.90
2018-06-10T12:35:39.972Z,30.30
2018-06-10T12:36:39.966Z,29.40
2018-06-10T12:37:40.113Z,28.30
2018-06-10T12:38:40.024Z,28.90
2018-06-10T12:39:40.141Z,27.80
2018-06-10T12:40:40.016Z,29.30
2018-06-10T12:41:41.193Z,29.10
2018-06-10T12:42:40.084Z,28.80
2018-06-10T12:43:40.147Z,28.80
2018-06-10T12:44:40.097Z,25.80
2018-06-10T12:45:40.132Z,29.30
2018-06-10T12:46:40.114Z,26.90
2018-06-10T12:47:40.153Z,24.00
2018-06-10T12:48:42.258Z,23.70
2018-06-10T12:49:40.186Z,25.30
2018-06-10T12:50:46.063Z,24.80
2018-06-10T12:51:40.213Z,25.20
2018-06-10T12:52:40.316Z,28.40
2018-06-10T12:53:40.238Z,25.30
2018-06-10T12:54:41.356Z,24.40
2018-06-10T12:55:40.274Z,24.50
2018-06-10T12:56:41.361Z,27.20
2018-06-10T12:57:40.300Z,25.20
2018-06-10T12:58:45.057Z,25.10
2018-06-10T12:59:40.348Z,23.40
2018-06-10T13:00:42.415Z,23.30
2018-06-10T13:01:40.364Z,25.70
2018-06-10T13:02:41.537Z,24.20
2018-06-10T13:03:40.415Z,26.20
2018-06-10T13:04:41.549Z,24.50
2018-06-10T13:05:40.512Z,22.80
2018-06-10T13:06:40.607Z,21.50
2018-06-10T13:07:40.506Z,26.80
2018-06-10T13:08:41.693Z,21.50
2018-06-10T13:09:40.503Z,22.20
2018-06-10T13:10:40.697Z,23.20
2018-06-10T13:11:40.533Z,26.50
2018-06-10T13:12:40.662Z,24.50
2018-06-10T13:13:40.575Z,24.00
2018-06-10T13:14:40.672Z,25.60
2018-06-10T13:15:40.603Z,22.30
2018-06-10T13:16:40.694Z,23.10
2018-06-10T13:17:40.686Z,22.30
2018-06-10T13:18:42.822Z,22.20
2018-06-10T13:19:40.662Z,23.10
2018-06-10T13:20:42.788Z,22.30
2018-06-10T13:21:40.687Z,23.40
2018-06-10T13:22:40.844Z,19.30
2018-06-10T13:23:40.740Z,22.80
2018-06-10T13:24:41.866Z,21.60
2018-06-10T13:25:40.797Z,24.60
2018-06-10T13:26:40.848Z,23.80
2018-06-10T13:27:40.885Z,21.80
2018-06-10T13:28:41.892Z,21.90
2018-06-10T13:29:40.824Z,21.60
2018-06-10T13:30:41.014Z,20.30
2018-06-10T13:31:40.882Z,20.70
2018-06-10T13:32:42.057Z,21.90
2018-06-10T13:33:40.917Z,22.10
2018-06-10T13:34:42.083Z,24.20
2018-06-10T13:35:40.968Z,22.20
2018-06-10T13:36:42.957Z,23.80
2018-06-10T13:37:40.965Z,21.90
2018-06-10T13:38:41.042Z,20.50
2018-06-10T13:39:41.037Z,21.20
2018-06-10T13:40:56.021Z,25.10
2018-06-10T13:41:41.045Z,22.50
2018-06-10T13:42:48.037Z,20.70
2018-06-10T13:43:41.076Z,23.40
2018-06-10T13:44:47.989Z,21.50
2018-06-10T13:45:41.075Z,20.20
2018-06-10T13:46:42.184Z,20.50
2018-06-10T13:47:41.151Z,19.90
2018-06-10T13:48:54.055Z,22.80
2018-06-10T13:49:41.200Z,22.50
2018-06-10T13:50:41.205Z,22.80
2018-06-10T13:51:41.197Z,19.90
2018-06-10T13:52:41.265Z,18.70
2018-06-10T13:53:41.265Z,22.70
2018-06-10T13:54:41.254Z,22.10
2018-06-10T13:55:41.287Z,19.70
2018-06-10T13:56:41.274Z,21.60
2018-06-10T13:57:41.316Z,18.80
2018-06-10T13:58:41.360Z,21.20
2018-06-10T13:59:41.335Z,20.70
2018-06-10T14:00:42.357Z,22.20
2018-06-10T14:01:41.399Z,20.30
2018-06-10T14:02:42.400Z,20.80
2018-06-10T14:03:41.395Z,19.70
2018-06-10T14:04:41.421Z,19.80
2018-06-10T14:05:41.427Z,17.00
2018-06-10T14:06:42.500Z,18.40
2018-06-10T14:07:41.456Z,22.10
2018-06-10T14:08:41.485Z,20.30
2018-06-10T14:09:41.497Z,18.30
2018-06-10T14:10:46.506Z,19.60
2018-06-10T14:11:41.566Z,21.10
2018-06-10T14:12:41.572Z,18.70
2018-06-10T14:13:41.586Z,18.80
2018-06-10T14:14:43.598Z,19.80
2018-06-10T14:15:41.599Z,20.10
2018-06-10T14:16:41.610Z,18.60
2018-06-10T14:17:41.612Z,19.90
2018-06-10T14:18:41.638Z,18.10
2018-06-10T14:19:43.653Z,19.50
2018-06-10T14:20:41.672Z,20.50
2018-06-10T14:21:41.678Z,17.50
2018-06-10T14:22:41.770Z,17.60
2018-06-10T14:23:42.759Z,20.20
2018-06-10T14:24:41.759Z,19.50
2018-06-10T14:25:41.770Z,18.40
2018-06-10T14:26:41.810Z,16.60
2018-06-10T14:27:41.809Z,15.60
2018-06-10T14:28:41.855Z,19.20
2018-06-10T14:29:42.821Z,18.30
2018-06-10T14:30:41.916Z,17.40
2018-06-10T14:31:41.868Z,18.90
2018-06-10T14:32:41.873Z,18.60
2018-06-10T14:33:41.887Z,18.50
2018-06-10T14:34:41.897Z,18.70
2018-06-10T14:35:41.975Z,17.40
2018-06-10T14:36:41.941Z,16.60
2018-06-10T14:37:41.959Z,19.60
2018-06-10T14:38:41.966Z,18.50
2018-06-10T14:39:42.007Z,21.90
2018-06-10T14:40:42.017Z,18.20
2018-06-10T14:41:42.005Z,19.90
2018-06-10T14:42:42.031Z,17.40
2018-06-10T14:43:42.055Z,21.70
2018-06-10T14:44:42.067Z,19.40
2018-06-10T14:45:42.084Z,16.00
2018-06-10T14:46:42.091Z,18.20
2018-06-10T14:47:42.142Z,17.80
2018-06-10T14:48:42.137Z,18.10
2018-06-10T14:49:42.210Z,18.50
2018-06-10T14:50:42.156Z,18.90
2018-06-10T14:51:42.174Z,15.60
2018-06-10T14:52:42.172Z,20.40
2018-06-10T14:53:47.233Z,15.50
2018-06-10T14:54:42.219Z,16.00
2018-06-10T14:55:42.242Z,17.60
2018-06-10T14:56:42.246Z,21.00
2018-06-10T14:57:42.272Z,16.00
2018-06-10T14:58:42.302Z,16.40
2018-06-10T14:59:42.315Z,16.20
2018-06-10T15:00:42.350Z,15.10
2018-06-10T15:01:42.351Z,18.00
2018-06-10T15:02:42.348Z,15.50
2018-06-10T15:03:42.391Z,18.90
2018-06-10T15:04:42.389Z,16.80
2018-06-10T15:05:42.400Z,17.40
2018-06-10T15:06:42.451Z,18.40
2018-06-10T15:07:43.508Z,18.30
2018-06-10T15:08:42.469Z,16.80
2018-06-10T15:09:42.504Z,19.40
2018-06-10T15:10:42.486Z,17.30
2018-06-10T15:11:42.526Z,17.90
2018-06-10T15:12:42.529Z,17.30
2018-06-10T15:13:42.564Z,16.90
2018-06-10T15:14:42.558Z,14.80
2018-06-10T15:15:42.572Z,13.90
2018-06-10T15:16:42.585Z,17.50
2018-06-10T15:17:42.623Z,15.00
2018-06-10T15:18:42.645Z,16.30
2018-06-10T15:19:42.643Z,15.30
2018-06-10T15:20:42.711Z,18.50
2018-06-10T15:21:42.737Z,15.00
2018-06-10T15:22:42.959Z,16.50
2018-06-10T15:23:42.742Z,20.60
2018-06-10T15:24:42.731Z,15.90
2018-06-10T15:25:44.766Z,14.80
2018-06-10T15:26:42.762Z,17.60
2018-06-10T15:27:48.575Z,17.80
2018-06-10T15:28:42.831Z,13.80
2018-06-10T15:29:43.903Z,17.20
2018-06-10T15:30:42.840Z,14.90
2018-06-10T15:31:59.523Z,15.50
2018-06-10T15:32:42.866Z,15.30
2018-06-10T15:33:49.529Z,17.80
2018-06-10T15:34:42.894Z,22.60
2018-06-10T15:35:42.911Z,17.70
2018-06-10T15:36:42.938Z,15.80
2018-06-10T15:37:42.978Z,17.90
2018-06-10T15:38:42.959Z,15.20
2018-06-10T15:39:45.101Z,16.00
2018-06-10T15:40:43.008Z,14.80
2018-06-10T15:41:43.047Z,17.10
